Time;durP1;ratioP1;P1;durP2;ratioP2;P2;SDS_P1;SDS_P2;PMS_P1;PMS_P2;Temp;Humidity;BMP_temperature;BMP_pressure;BME280_temperature;BME280_humidity;BME280_pressure;Samples;Min_cycle;Max_cycle;Signal;HPM_P1;HPM_P2
2022/04/14 00:01:15;;;;;;;45.00;24.32;;;;;;;4.41;72.47;98492.30;1747484;82;20889;-57
2022/04/14 00:03:41;;;;;;;55.50;25.88;;;;;;;4.43;72.26;98502.80;1747460;82;21303;-57
2022/04/14 00:06:06;;;;;;;52.90;27.70;;;;;;;4.41;76.02;98499.00;1748134;82;20881;-57
2022/04/14 00:08:32;;;;;;;52.20;26.07;;;;;;;4.43;75.10;98494.22;1747605;81;20897;-56
2022/04/14 00:10:58;;;;;;;63.25;31.25;;;;;;;4.44;76.91;98492.35;1759784;81;21127;-57
2022/04/14 00:13:24;;;;;;;50.70;28.30;;;;;;;4.45;75.79;98485.44;1745890;81;20965;-58
2022/04/14 00:15:50;;;;;;;48.20;26.90;;;;;;;4.47;78.69;98492.73;1750302;81;21581;-57
2022/04/14 00:18:16;;;;;;;49.03;26.10;;;;;;;4.49;77.98;98495.18;1754429;81;20888;-57
2022/04/14 00:20:42;;;;;;;55.88;30.75;;;;;;;4.46;77.00;98491.09;1746025;82;20920;-57
2022/04/14 00:23:08;;;;;;;51.68;27.40;;;;;;;4.43;77.60;98490.72;1747828;82;21008;-57
2022/04/14 00:25:35;;;;;;;49.42;28.55;;;;;;;4.42;78.34;98485.06;1761386;81;21414;-57
2022/04/14 00:28:01;;;;;;;51.90;23.83;;;;;;;4.37;79.39;98483.60;1735538;81;21150;-57
2022/04/14 00:30:26;;;;;;;47.20;25.45;;;;;;;4.38;75.77;98488.73;1744403;82;20878;-57
2022/04/14 00:32:53;;;;;;;47.90;25.55;;;;;;;4.22;75.56;98487.51;1747444;82;21623;-57
2022/04/14 00:35:19;;;;;;;40.70;23.40;;;;;;;4.14;78.07;98489.69;1747762;82;20977;-57
2022/04/14 00:37:44;;;;;;;46.30;25.10;;;;;;;4.11;78.89;98491.49;1728216;82;20908;-57
2022/04/14 00:40:11;;;;;;;44.50;25.00;;;;;;;4.10;79.88;98487.14;1754106;81;20964;-57
2022/04/14 00:42:37;;;;;;;45.03;25.72;;;;;;;4.16;78.19;98492.43;1752078;81;20973;-57
2022/04/14 00:45:03;;;;;;;49.63;26.23;;;;;;;4.21;78.73;98495.27;1765235;79;20926;-57
2022/04/14 00:47:29;;;;;;;47.62;26.68;;;;;;;4.23;79.39;98485.64;1741285;81;21055;-57
2022/04/14 00:49:55;;;;;;;51.90;27.62;;;;;;;4.25;78.64;98487.56;1741918;82;21017;-57
2022/04/14 00:52:22;;;;;;;47.67;25.55;;;;;;;4.24;79.08;98489.44;1747672;82;21239;-57
2022/04/14 00:54:48;;;;;;;42.67;23.42;;;;;;;4.19;78.65;98493.86;1747493;82;21028;-57
2022/04/14 00:57:14;;;;;;;51.58;26.75;;;;;;;4.16;76.54;98492.43;1738850;82;21016;-58
2022/04/14 00:59:41;;;;;;;42.75;24.80;;;;;;;4.04;77.62;98494.25;1740598;82;20854;-57
2022/04/14 01:02:09;;;;;;;45.67;24.30;;;;;;;4.01;78.93;98492.53;1747764;82;20997;-57
2022/04/14 01:04:35;;;;;;;40.43;23.00;;;;;;;4.02;76.54;98491.51;1746953;82;21546;-57
2022/04/14 01:07:01;;;;;;;44.20;24.80;;;;;;;4.07;78.13;98494.31;1724000;82;20889;-57
2022/04/14 01:09:28;;;;;;;47.53;24.52;;;;;;;4.07;78.13;98494.31;1736088;82;20876;-57
2022/04/14 01:11:55;;;;;;;50.52;27.40;;;;;;;4.07;78.60;98499.16;1738080;81;21022;-57
2022/04/14 01:14:32;;;;;;;47.25;26.52;;;;;;;4.05;80.41;98507.95;1762051;79;21440;-57
2022/04/14 01:17:04;;;;;;;46.40;25.23;;;;;;;3.96;79.23;98507.45;1754900;81;21875;-57
2022/04/14 01:19:30;;;;;;;53.45;25.50;;;;;;;3.88;79.39;98506.41;1753274;81;21421;-58
2022/04/14 01:22:19;;;;;;;45.78;25.27;;;;;;;3.84;76.78;98502.52;1755334;81;20956;-57
2022/04/14 01:24:45;;;;;;;48.98;26.80;;;;;;;3.70;76.43;98505.60;1764712;79;21501;-57
2022/04/14 01:27:11;;;;;;;47.10;25.43;;;;;;;3.55;76.40;98506.78;1745054;81;20984;-57
2022/04/14 01:29:37;;;;;;;47.88;25.45;;;;;;;3.50;76.87;98506.61;1739902;81;20924;-57
2022/04/14 01:32:05;;;;;;;45.08;24.67;;;;;;;3.47;76.37;98508.93;1747983;82;20985;-57
2022/04/14 01:34:31;;;;;;;47.62;25.60;;;;;;;3.46;76.70;98509.45;1752623;79;22026;-57
2022/04/14 01:37:00;;;;;;;43.45;22.05;;;;;;;3.47;76.61;98505.73;1732553;82;20879;-58
2022/04/14 01:39:27;;;;;;;47.17;25.20;;;;;;;3.39;76.23;98511.38;1730765;82;20993;-57
2022/04/14 01:41:53;;;;;;;43.00;25.43;;;;;;;3.28;79.67;98506.75;1735416;82;21062;-57
2022/04/14 01:44:19;;;;;;;44.73;23.52;;;;;;;3.24;79.74;98502.86;1745180;82;20987;-57
2022/04/14 01:46:45;;;;;;;43.68;24.32;;;;;;;3.18;81.75;98498.41;1747457;82;21458;-57
2022/04/14 01:49:11;;;;;;;45.73;24.47;;;;;;;3.15;81.64;98499.65;1747594;82;20956;-57
2022/04/14 01:51:37;;;;;;;46.65;26.73;;;;;;;3.15;81.16;98505.52;1748045;82;21034;-57
2022/04/14 01:54:04;;;;;;;40.83;22.22;;;;;;;3.10;81.61;98500.84;1747808;82;21429;-57
2022/04/14 01:56:30;;;;;;;39.38;21.87;;;;;;;3.07;79.19;98503.94;1742763;82;20972;-57
2022/04/14 01:58:56;;;;;;;44.98;23.90;;;;;;;2.99;78.28;98508.23;1735174;82;21003;-57
2022/04/14 02:01:22;;;;;;;38.75;21.45;;;;;;;2.90;77.67;98510.36;1745453;81;21502;-57
2022/04/14 02:03:48;;;;;;;42.45;22.20;;;;;;;2.79;78.70;98521.27;1748611;81;20885;-57
2022/04/14 02:06:14;;;;;;;39.80;21.33;;;;;;;2.79;78.84;98522.60;1752958;81;21895;-57
2022/04/14 02:08:41;;;;;;;49.60;23.67;;;;;;;2.84;78.40;98513.94;1749411;81;21137;-57
2022/04/14 02:11:07;;;;;;;40.15;23.25;;;;;;;2.86;79.02;98517.73;1748092;82;20954;-57
2022/04/14 02:13:33;;;;;;;52.25;24.82;;;;;;;2.91;79.18;98515.23;1747859;82;20958;-57
2022/04/14 02:15:59;;;;;;;42.23;23.10;;;;;;;2.95;80.45;98513.22;1748190;82;21113;-57
2022/04/14 02:18:25;;;;;;;39.35;22.48;;;;;;;2.96;82.52;98516.19;1747726;82;21459;-57
2022/04/14 02:20:51;;;;;;;43.58;24.05;;;;;;;2.93;79.54;98511.28;1747453;82;22161;-57
2022/04/14 02:23:18;;;;;;;50.45;26.20;;;;;;;2.82;82.20;98514.16;1748127;82;20908;-57
2022/04/14 02:25:44;;;;;;;43.38;25.23;;;;;;;2.78;83.16;98513.45;1736545;82;21425;-57
2022/04/14 02:28:10;;;;;;;46.95;25.23;;;;;;;2.68;84.25;98511.27;1739187;82;20961;-57
2022/04/14 02:30:36;;;;;;;46.63;26.17;;;;;;;2.63;83.96;98511.09;1746449;81;22167;-57
2022/04/14 02:33:02;;;;;;;47.67;24.65;;;;;;;2.59;84.56;98509.89;1765340;80;21429;-57
2022/04/14 02:35:28;;;;;;;45.55;23.32;;;;;;;2.53;85.17;98504.88;1743112;81;21024;-57
2022/04/14 02:37:58;;;;;;;46.23;28.57;;;;;;;2.48;86.06;98510.08;1751234;81;20889;-57
2022/04/14 02:40:24;;;;;;;34.13;20.95;;;;;;;2.47;86.31;98511.08;1759245;81;21563;-57
2022/04/14 02:42:54;;;;;;;39.78;22.80;;;;;;;2.46;82.32;98512.64;1739309;81;21407;-57
2022/04/14 02:45:21;;;;;;;41.63;21.48;;;;;;;2.45;81.92;98513.16;1747580;82;20973;-57
2022/04/14 02:47:47;;;;;;;35.50;19.65;;;;;;;2.48;80.77;98508.73;1761079;81;20965;-57
2022/04/14 02:50:13;;;;;;;42.67;22.10;;;;;;;2.46;80.82;98513.46;1748000;82;20850;-57
2022/04/14 02:52:39;;;;;;;39.88;20.97;;;;;;;2.42;80.15;98510.11;1747974;82;20869;-57
2022/04/14 02:55:06;;;;;;;42.33;22.10;;;;;;;2.39;82.58;98512.67;1747601;82;21173;-57
2022/04/14 02:57:32;;;;;;;39.65;21.23;;;;;;;2.38;84.41;98516.39;1747837;82;21481;-57
2022/04/14 02:59:58;;;;;;;38.50;21.73;;;;;;;2.36;83.75;98508.28;1747792;82;20869;-57
2022/04/14 03:02:24;;;;;;;41.20;23.18;;;;;;;2.30;84.92;98510.47;1747607;82;20854;-57
2022/04/14 03:04:50;;;;;;;36.40;20.60;;;;;;;2.25;82.01;98508.45;1747367;82;21532;-57
2022/04/14 03:07:16;;;;;;;43.78;24.00;;;;;;;2.22;80.82;98509.72;1747724;82;21442;-57
2022/04/14 03:09:42;;;;;;;77.92;24.98;;;;;;;2.12;80.32;98517.88;1747225;81;22008;-57
2022/04/14 03:12:09;;;;;;;39.83;20.92;;;;;;;2.01;83.34;98518.03;1747414;82;20881;-57
2022/04/14 03:14:35;;;;;;;48.45;22.10;;;;;;;1.97;83.53;98522.99;1752257;79;21436;-57
2022/04/14 03:17:01;;;;;;;35.85;20.77;;;;;;;2.00;81.27;98521.73;1735318;82;20863;-57
2022/04/14 03:19:27;;;;;;;33.28;19.50;;;;;;;2.00;81.79;98519.59;1735155;82;21411;-57
2022/04/14 03:21:53;;;;;;;39.18;20.77;;;;;;;2.02;82.43;98514.84;1734940;82;20900;-57
2022/04/14 03:24:19;;;;;;;34.63;20.60;;;;;;;2.03;82.65;98512.47;1743451;81;20892;-57
2022/04/14 03:26:45;;;;;;;42.83;19.85;;;;;;;2.01;85.99;98509.19;1750645;81;21011;-57
2022/04/14 03:29:11;;;;;;;41.02;22.00;;;;;;;2.05;83.42;98510.39;1740275;82;20913;-57
2022/04/14 03:31:36;;;;;;;40.73;21.97;;;;;;;2.01;86.38;98512.69;1741114;82;21320;-57
2022/04/14 03:34:02;;;;;;;50.28;21.95;;;;;;;2.03;84.46;98507.12;1747863;82;20873;-57
2022/04/14 03:36:28;;;;;;;42.95;24.00;;;;;;;1.99;84.57;98513.42;1745627;82;21466;-57
2022/04/14 03:38:54;;;;;;;39.35;21.75;;;;;;;1.96;85.09;98505.29;1724394;82;20932;-57
2022/04/14 03:41:20;;;;;;;32.08;19.90;;;;;;;1.90;82.68;98502.67;1739717;82;20925;-57
2022/04/14 03:43:46;;;;;;;46.08;22.67;;;;;;;1.79;81.38;98503.31;1748022;82;21398;-57
2022/04/14 03:46:14;;;;;;;40.60;23.42;;;;;;;1.69;84.76;98505.91;1747629;82;21009;-57
2022/04/14 03:48:41;;;;;;;39.35;20.62;;;;;;;1.70;85.30;98504.06;1747651;82;21438;-57
2022/04/14 03:51:07;;;;;;;49.08;23.27;;;;;;;1.73;84.79;98506.33;1747712;82;20977;-57
2022/04/14 03:53:33;;;;;;;44.83;23.92;;;;;;;1.79;83.96;98506.80;1747921;82;20913;-57
2022/04/14 03:55:59;;;;;;;51.28;22.90;;;;;;;1.82;83.03;98503.72;1747698;82;21464;-57
2022/04/14 03:58:25;;;;;;;43.42;21.05;;;;;;;1.85;82.44;98507.30;1747628;82;21003;-57
2022/04/14 04:00:51;;;;;;;45.70;22.82;;;;;;;1.83;81.88;98510.70;1747598;82;20905;-57
2022/04/14 04:03:17;;;;;;;37.58;21.93;;;;;;;1.77;83.16;98508.87;1747631;82;21979;-57
2022/04/14 04:05:43;;;;;;;41.28;23.35;;;;;;;1.72;82.14;98506.03;1747537;82;20846;-57
2022/04/14 04:08:08;;;;;;;45.95;26.10;;;;;;;1.64;81.82;98504.41;1743847;81;21729;-57
2022/04/14 04:10:34;;;;;;;57.95;30.68;;;;;;;1.59;81.80;98508.21;1734692;82;20920;-57
2022/04/14 04:13:00;;;;;;;60.17;33.60;;;;;;;1.55;84.04;98511.01;1742887;81;21580;-58
2022/04/14 04:15:26;;;;;;;55.65;31.05;;;;;;;1.59;86.03;98512.22;1744340;82;20916;-57
2022/04/14 04:17:52;;;;;;;46.85;26.97;;;;;;;1.63;86.30;98514.79;1747804;82;20885;-57
2022/04/14 04:20:19;;;;;;;47.78;25.30;;;;;;;1.66;87.55;98510.35;1747485;82;22376;-57
2022/04/14 04:22:45;;;;;;;43.60;24.98;;;;;;;1.75;84.89;98512.79;1745417;81;21573;-57
2022/04/14 04:25:11;;;;;;;51.77;25.12;;;;;;;1.75;85.92;98518.14;1735300;82;20944;-57
2022/04/14 04:27:37;;;;;;;52.33;26.90;;;;;;;1.80;86.13;98515.14;1736345;82;21485;-57
2022/04/14 04:30:05;;;;;;;48.75;25.90;;;;;;;1.88;86.65;98520.74;1745688;82;21030;-58
2022/04/14 04:32:33;;;;;;;48.98;26.12;;;;;;;1.94;87.33;98518.56;1760753;81;21382;-57
2022/04/14 04:35:03;;;;;;;48.48;26.65;;;;;;;1.97;85.37;98518.16;1741277;82;20988;-57
2022/04/14 04:37:29;;;;;;;49.25;24.40;;;;;;;2.02;84.84;98523.67;1754679;81;20993;-57
2022/04/14 04:39:55;;;;;;;40.60;21.62;;;;;;;2.10;85.46;98528.78;1756103;79;20980;-57
2022/04/14 04:42:21;;;;;;;54.20;27.95;;;;;;;2.18;83.26;98528.54;1747923;82;21040;-57
2022/04/14 04:44:47;;;;;;;51.10;28.70;;;;;;;2.20;85.29;98536.34;1755831;81;21310;-57
2022/04/14 04:47:13;;;;;;;49.88;29.20;;;;;;;2.29;86.47;98527.55;1765657;81;20947;-57
2022/04/14 04:49:39;;;;;;;75.65;39.98;;;;;;;2.39;85.49;98531.40;1748514;81;21076;-57
2022/04/14 04:52:05;;;;;;;79.07;42.25;;;;;;;2.45;85.54;98529.21;1747902;82;21573;-58
2022/04/14 04:54:31;;;;;;;84.62;41.95;;;;;;;2.51;85.74;98525.69;1753875;81;21028;-57
2022/04/14 04:56:57;;;;;;;62.90;39.05;;;;;;;2.58;85.45;98516.80;1756890;81;22118;-57
2022/04/14 04:59:23;;;;;;;60.45;33.00;;;;;;;2.61;85.97;98529.22;1745619;81;20876;-57
2022/04/14 05:01:49;;;;;;;66.25;34.53;;;;;;;2.68;85.21;98524.65;1756104;81;21474;-57
2022/04/14 05:04:15;;;;;;;51.70;32.78;;;;;;;2.78;84.51;98529.52;1747703;82;20862;-57
2022/04/14 05:06:41;;;;;;;52.80;32.17;;;;;;;2.87;84.60;98526.05;1747156;82;21059;-58
2022/04/14 05:09:07;;;;;;;55.60;31.80;;;;;;;2.95;85.55;98519.91;1747860;81;21547;-57
2022/04/14 05:11:34;;;;;;;58.78;35.50;;;;;;;3.07;84.92;98516.80;1753880;81;20929;-57
2022/04/14 05:14:01;;;;;;;56.70;32.53;;;;;;;3.18;85.42;98518.50;1747732;80;21012;-58
2022/04/14 05:16:27;;;;;;;53.58;29.63;;;;;;;3.30;84.61;98522.08;1747546;82;20970;-57
2022/04/14 05:18:53;;;;;;;43.95;24.55;;;;;;;3.42;83.72;98517.65;1747541;82;20886;-57
2022/04/14 05:21:19;;;;;;;36.93;21.45;;;;;;;3.51;84.31;98516.32;1747666;82;21012;-57
2022/04/14 05:23:45;;;;;;;45.73;24.23;;;;;;;3.63;82.61;98519.89;1747352;82;20932;-57
2022/04/14 05:26:11;;;;;;;45.12;26.48;;;;;;;3.72;82.56;98517.73;1736263;82;20904;-57
2022/04/14 05:28:37;;;;;;;52.20;28.67;;;;;;;3.79;83.00;98515.80;1740537;81;20913;-57
2022/04/14 05:31:02;;;;;;;50.52;29.02;;;;;;;3.89;83.45;98507.22;1747763;82;20964;-57
2022/04/14 05:33:28;;;;;;;43.73;27.82;;;;;;;4.01;83.09;98508.62;1756175;80;21170;-56
2022/04/14 05:35:54;;;;;;;48.60;26.37;;;;;;;4.13;82.38;98514.35;1742719;81;20897;-57
2022/04/14 05:38:20;;;;;;;48.60;29.42;;;;;;;4.28;82.08;98507.78;1726819;81;20901;-57
2022/04/14 05:40:46;;;;;;;44.80;25.97;;;;;;;4.38;81.77;98505.36;1750337;81;20881;-57
2022/04/14 05:43:19;;;;;;;48.52;29.15;;;;;;;4.53;81.53;98509.27;1743659;81;20973;-57
2022/04/14 05:45:47;;;;;;;49.80;27.15;;;;;;;4.66;81.25;98500.71;1745663;81;22067;-57
2022/04/14 05:48:14;;;;;;;47.55;25.60;;;;;;;4.84;80.79;98510.03;1755050;81;21019;-57
2022/04/14 05:50:43;;;;;;;44.77;24.98;;;;;;;5.02;80.33;98506.44;1740037;81;21476;-56
2022/04/14 05:53:09;;;;;;;38.20;22.02;;;;;;;5.20;79.84;98502.30;1744370;79;21052;-56
2022/04/14 05:55:35;;;;;;;49.10;24.55;;;;;;;5.37;79.81;98499.73;1749551;81;21024;-56
2022/04/14 05:58:03;;;;;;;44.77;25.05;;;;;;;5.61;79.61;98499.19;1744640;80;21139;-57
2022/04/14 06:00:34;;;;;;;34.67;20.75;;;;;;;5.90;79.02;98502.78;1745707;80;21252;-56
2022/04/14 06:03:00;;;;;;;49.42;23.20;;;;;;;6.13;77.83;98504.07;1739798;81;21198;-56
2022/04/14 06:05:30;;;;;;;48.70;24.45;;;;;;;6.36;77.37;98500.48;1747167;80;21560;-57
2022/04/14 06:07:56;;;;;;;36.83;22.85;;;;;;;6.49;77.54;98502.05;1750740;80;21505;-57
2022/04/14 06:10:22;;;;;;;40.67;20.45;;;;;;;6.68;76.83;98499.45;1753120;80;21528;-57
2022/04/14 06:12:49;;;;;;;39.03;20.00;;;;;;;6.92;75.72;98500.64;1755060;80;22110;-57
2022/04/14 06:15:18;;;;;;;35.55;20.25;;;;;;;7.08;75.37;98494.44;1764432;80;21043;-57
2022/04/14 06:17:44;;;;;;;38.17;21.12;;;;;;;7.29;74.70;98494.25;1753193;80;21027;-57
2022/04/14 06:20:11;;;;;;;38.17;20.43;;;;;;;7.52;74.89;98495.41;1755047;80;21579;-57
2022/04/14 06:22:42;;;;;;;53.45;25.80;;;;;;;7.73;74.18;98492.44;1708020;82;21294;-57
2022/04/14 06:25:13;;;;;;;46.00;23.90;;;;;;;7.93;74.15;98490.52;1744299;80;21485;-57
2022/04/14 06:27:43;;;;;;;55.63;29.77;;;;;;;8.17;73.69;98486.50;1748632;80;21035;-57
2022/04/14 06:30:11;;;;;;;26.70;15.78;;;;;;;8.57;73.74;98487.23;1749028;80;21528;-57
2022/04/14 06:32:37;;;;;;;25.90;14.58;;;;;;;9.00;71.42;98494.38;1738934;80;21108;-57
2022/04/14 06:35:06;;;;;;;23.62;15.50;;;;;;;9.42;69.59;98488.20;1735856;80;21311;-57
2022/04/14 06:37:34;;;;;;;24.18;14.65;;;;;;;9.67;68.04;98488.36;1747907;80;21633;-57
2022/04/14 06:40:00;;;;;;;27.07;14.17;;;;;;;9.84;66.80;98485.47;1735433;80;21067;-57
2022/04/14 06:42:26;;;;;;;27.50;14.40;;;;;;;9.93;66.43;98485.78;1738167;82;21714;-56
2022/04/14 06:44:59;;;;;;;21.17;11.95;;;;;;;10.06;65.57;98486.63;1737898;80;20901;-57
2022/04/14 06:47:28;;;;;;;25.00;14.75;;;;;;;10.20;65.69;98493.20;1733674;80;21869;-56
2022/04/14 06:49:54;;;;;;;28.02;13.48;;;;;;;10.38;65.52;98490.03;1745503;80;21042;-57
2022/04/14 06:52:21;;;;;;;21.40;14.43;;;;;;;10.61;64.53;98491.99;1739698;80;21488;-57
2022/04/14 06:54:47;;;;;;;25.20;15.10;;;;;;;10.87;63.32;98481.45;1735864;80;21169;-57
2022/04/14 06:57:12;;;;;;;21.23;13.80;;;;;;;11.46;61.77;98474.09;1741829;80;21667;-57
2022/04/14 06:59:38;;;;;;;25.55;13.53;;;;;;;12.16;60.46;98476.08;1747675;80;21108;-57
2022/04/14 07:02:05;;;;;;;21.35;12.63;;;;;;;12.78;59.26;98474.08;1738847;80;20897;-57
2022/04/14 07:04:31;;;;;;;20.35;12.88;;;;;;;13.31;57.42;98474.22;1739587;80;21036;-56
2022/04/14 07:06:56;;;;;;;19.85;11.70;;;;;;;13.86;56.14;98475.31;1743043;80;21004;-57
2022/04/14 07:09:24;;;;;;;20.80;12.65;;;;;;;14.44;55.82;98476.47;1743635;80;21034;-57
2022/04/14 07:11:50;;;;;;;27.22;13.10;;;;;;;14.97;55.32;98473.57;1743822;80;21116;-56
2022/04/14 07:14:16;;;;;;;19.80;11.68;;;;;;;15.45;53.27;98474.91;1737493;80;20897;-57
2022/04/14 07:16:42;;;;;;;15.78;11.08;;;;;;;15.89;52.69;98466.74;1736528;80;21043;-57
2022/04/14 07:19:08;;;;;;;18.48;11.33;;;;;;;16.47;48.38;98456.52;1737566;80;21067;-57
2022/04/14 07:21:34;;;;;;;21.00;12.45;;;;;;;16.84;47.88;98456.00;1737604;82;20885;-57
2022/04/14 07:24:00;;;;;;;19.20;11.12;;;;;;;17.45;45.79;98457.22;1725466;80;21737;-57
2022/04/14 07:26:26;;;;;;;15.72;11.10;;;;;;;17.55;46.14;98456.94;1755841;80;20881;-57
2022/04/14 07:28:51;;;;;;;35.10;13.48;;;;;;;17.85;46.46;98449.03;1746403;80;20936;-57
2022/04/14 07:31:17;;;;;;;16.97;10.23;;;;;;;18.46;46.02;98445.34;1745486;80;20872;-57
2022/04/14 07:33:43;;;;;;;27.52;11.35;;;;;;;19.11;41.72;98447.70;1745033;80;20991;-57
2022/04/14 07:36:09;;;;;;;15.78;9.95;;;;;;;19.14;43.12;98442.92;1728948;80;21128;-58
2022/04/14 07:38:35;;;;;;;19.02;11.03;;;;;;;19.81;40.92;98439.53;1747820;80;21988;-58
2022/04/14 07:41:05;;;;;;;24.10;10.38;;;;;;;20.19;41.80;98436.77;1747318;80;20988;-57
2022/04/14 07:43:29;;;;;;;19.90;9.77;;;;;;;20.54;39.04;98433.25;1741531;80;21056;-57
2022/04/14 07:45:56;;;;;;;15.80;9.50;;;;;;;20.86;38.25;98426.77;1744691;80;37774;-57
2022/04/14 07:48:22;;;;;;;18.45;9.05;;;;;;;21.39;37.96;98429.28;1763681;78;21187;-58
2022/04/14 07:50:49;;;;;;;15.53;8.88;;;;;;;22.09;36.03;98427.31;1759054;80;21044;-58
2022/04/14 07:53:15;;;;;;;14.70;8.33;;;;;;;22.08;35.62;98426.28;1753715;80;20984;-58
2022/04/14 07:55:41;;;;;;;15.63;9.73;;;;;;;21.81;36.30;98426.36;1771398;80;20885;-58
2022/04/14 07:58:07;;;;;;;19.25;9.50;;;;;;;21.83;36.19;98430.37;1739876;80;21595;-58
2022/04/14 08:00:35;;;;;;;11.60;7.22;;;;;;;21.99;35.18;98429.13;1741500;81;21061;-58
2022/04/14 08:03:02;;;;;;;13.53;7.25;;;;;;;22.01;32.81;98421.88;1754866;80;21066;-58
2022/04/14 08:05:37;;;;;;;11.40;7.35;;;;;;;21.96;32.32;98427.03;1745105;80;21129;-58
2022/04/14 08:08:11;;;;;;;23.80;9.05;;;;;;;22.05;33.93;98420.86;1747089;80;21178;-57
2022/04/14 08:10:38;;;;;;;13.80;8.53;;;;;;;22.98;33.67;98421.72;1750701;80;21034;-57
2022/04/14 08:13:04;;;;;;;11.83;6.92;;;;;;;24.05;31.13;98420.99;1745866;80;21113;-57
2022/04/14 08:15:30;;;;;;;13.88;9.30;;;;;;;24.48;29.03;98409.77;1748313;80;21051;-57
2022/04/14 08:17:57;;;;;;;13.70;7.95;;;;;;;24.75;28.82;98415.48;1724103;80;21000;-58
2022/04/14 08:20:23;;;;;;;12.13;7.05;;;;;;;25.18;29.44;98414.40;1748931;80;20995;-58
2022/04/14 08:22:56;;;;;;;12.75;6.97;;;;;;;25.83;28.17;98411.65;1748786;80;21060;-58
2022/04/14 08:25:27;;;;;;;11.80;6.75;;;;;;;25.93;29.09;98408.03;1743293;80;21902;-58
2022/04/14 08:27:53;;;;;;;12.13;7.42;;;;;;;26.42;29.25;98405.25;1748255;80;21038;-58
2022/04/14 08:30:22;;;;;;;15.05;6.85;;;;;;;26.77;28.28;98404.92;1746851;80;21064;-59
2022/04/14 08:32:49;;;;;;;11.55;6.20;;;;;;;26.91;27.11;98404.28;1747095;80;21043;-59
2022/04/14 08:35:16;;;;;;;13.60;6.30;;;;;;;26.61;25.90;98401.53;1772168;80;21461;-59
2022/04/14 08:37:43;;;;;;;14.58;6.20;;;;;;;26.56;25.59;98397.09;1774178;79;21081;-59
2022/04/14 08:40:11;;;;;;;12.88;6.42;;;;;;;25.94;25.82;98398.53;1744184;81;21063;-58
2022/04/14 08:42:41;;;;;;;8.70;5.47;;;;;;;25.70;26.73;98399.68;1742004;80;21488;-58
2022/04/14 08:45:14;;;;;;;7.37;5.70;;;;;;;25.02;23.80;98394.25;1737413;80;21399;-58
2022/04/14 08:47:40;;;;;;;11.53;5.80;;;;;;;25.43;25.10;98394.06;1740226;80;21017;-58
2022/04/14 08:50:10;;;;;;;10.10;5.97;;;;;;;26.62;25.38;98394.80;1745649;80;21895;-58
2022/04/14 08:52:37;;;;;;;7.10;5.03;;;;;;;27.50;25.02;98394.23;1744057;81;20994;-58
2022/04/14 08:55:05;;;;;;;19.00;7.10;;;;;;;28.42;24.39;98396.20;1739977;80;21620;-58
2022/04/14 08:57:31;;;;;;;13.95;5.53;;;;;;;29.11;23.37;98390.57;1736828;80;21028;-58
2022/04/14 08:59:58;;;;;;;11.20;5.80;;;;;;;29.71;22.10;98388.52;1745189;80;21044;-58
2022/04/14 09:02:24;;;;;;;13.35;4.78;;;;;;;29.63;20.98;98384.91;1740702;80;21079;-58
2022/04/14 09:04:50;;;;;;;7.30;4.87;;;;;;;30.05;19.12;98378.53;1711866;82;21056;-58
2022/04/14 09:07:16;;;;;;;5.10;3.83;;;;;;;30.25;19.29;98380.92;1742309;81;21554;-58
2022/04/14 09:09:44;;;;;;;7.50;4.75;;;;;;;29.71;19.38;98378.14;1743360;80;20878;-58
2022/04/14 09:12:10;;;;;;;5.27;3.80;;;;;;;30.19;19.30;98368.58;1733329;81;21040;-58
2022/04/14 09:14:37;;;;;;;9.18;3.90;;;;;;;29.72;16.47;98370.56;1731647;80;21021;-58
2022/04/14 09:17:05;;;;;;;6.10;4.00;;;;;;;28.97;18.11;98365.41;1745488;80;22291;-58
2022/04/14 09:19:32;;;;;;;6.58;3.98;;;;;;;28.25;19.44;98365.03;1741909;82;21064;-58
2022/04/14 09:22:02;;;;;;;5.87;4.22;;;;;;;29.29;19.39;98361.31;1722304;82;21028;-58
2022/04/14 09:24:51;;;;;;;8.95;4.20;;;;;;;30.56;18.97;98355.48;1740016;80;21187;-58
2022/04/14 09:27:37;;;;;;;12.45;4.75;;;;;;;30.85;18.11;98356.19;1735179;81;21547;-58
2022/04/14 09:30:06;;;;;;;4.33;3.20;;;;;;;31.56;17.59;98353.01;1734115;80;21099;-58
2022/04/14 09:32:42;;;;;;;6.75;4.58;;;;;;;30.65;17.56;98348.89;1728058;81;21047;-58
2022/04/14 09:35:19;;;;;;;11.48;4.55;;;;;;;31.14;17.13;98347.86;1719634;81;20991;-58
2022/04/14 09:37:45;;;;;;;7.35;4.30;;;;;;;31.00;17.57;98335.34;1737491;80;20993;-58
2022/04/14 09:40:12;;;;;;;10.03;4.85;;;;;;;31.56;17.09;98324.20;1726795;80;22054;-58
2022/04/14 09:42:43;;;;;;;10.03;4.70;;;;;;;31.85;16.80;98330.38;1731270;81;21040;-58
2022/04/14 09:45:22;;;;;;;7.00;3.90;;;;;;;30.32;18.04;98320.81;1731681;80;21048;-58
2022/04/14 09:47:53;;;;;;;4.87;3.08;;;;;;;28.22;18.51;98320.45;1726895;81;21657;-59
2022/04/14 09:50:32;;;;;;;6.95;3.80;;;;;;;27.12;20.22;98320.35;1732489;81;21083;-58
2022/04/14 09:53:13;;;;;;;7.87;4.30;;;;;;;26.50;20.97;98312.48;1727948;81;21125;-58
2022/04/14 09:55:52;;;;;;;6.67;3.92;;;;;;;26.05;21.76;98314.81;1741822;81;21091;-58
2022/04/14 09:58:19;;;;;;;6.42;3.98;;;;;;;25.52;22.00;98313.38;1736944;80;20986;-58
2022/04/14 10:00:51;;;;;;;5.53;4.00;;;;;;;25.09;22.43;98307.69;1750655;80;21070;-58
2022/04/14 10:03:19;;;;;;;6.40;4.25;;;;;;;24.60;22.79;98304.14;1753621;80;20977;-59
2022/04/14 10:05:46;;;;;;;7.12;3.92;;;;;;;24.13;23.07;98312.05;1750951;80;21164;-58
2022/04/14 10:08:13;;;;;;;10.30;3.80;;;;;;;23.71;23.68;98311.29;1752817;81;21026;-58
2022/04/14 10:10:42;;;;;;;10.48;5.08;;;;;;;22.60;23.92;98306.77;1771439;80;21419;-58
2022/04/14 10:13:10;;;;;;;5.80;4.05;;;;;;;22.83;24.56;98310.58;1764493;80;21442;-59
2022/04/14 10:15:44;;;;;;;5.58;3.75;;;;;;;22.77;24.60;98305.88;1757997;80;21455;-58
2022/04/14 10:18:13;;;;;;;9.43;4.12;;;;;;;22.76;24.75;98300.14;1757891;80;21866;-58
2022/04/14 10:20:40;;;;;;;9.15;4.28;;;;;;;22.38;25.03;98295.69;1746156;80;21081;-58
2022/04/14 10:23:09;;;;;;;8.00;4.30;;;;;;;21.95;25.38;98293.02;1762398;78;20997;-59
2022/04/14 10:25:38;;;;;;;6.12;4.30;;;;;;;21.56;25.49;98288.48;1770159;80;21063;-58
2022/04/14 10:28:07;;;;;;;7.45;4.25;;;;;;;21.52;25.94;98290.88;1771567;78;21075;-58
2022/04/14 10:30:33;;;;;;;7.97;3.58;;;;;;;21.11;26.14;98286.59;1750892;80;21776;-58
2022/04/14 10:32:59;;;;;;;11.63;4.65;;;;;;;21.33;26.13;98286.74;1762282;80;20883;-58
2022/04/14 10:35:26;;;;;;;17.75;5.80;;;;;;;21.47;26.05;98286.41;1763383;80;20885;-58
2022/04/14 10:38:21;;;;;;;21.20;7.85;;;;;;;21.36;26.30;98293.51;1757632;80;21089;-58
2022/04/14 10:41:04;;;;;;;7.15;4.28;;;;;;;21.53;26.51;98283.63;1754851;80;21100;-57
2022/04/14 10:43:32;;;;;;;11.65;4.12;;;;;;;21.15;25.56;98276.25;1710019;81;21730;-58
2022/04/14 10:45:58;;;;;;;9.40;3.72;;;;;;;21.46;26.12;98278.49;1753958;80;21094;-58
2022/04/14 10:48:36;;;;;;;9.85;4.03;;;;;;;21.33;25.90;98274.91;1671196;82;21015;-58
2022/04/14 10:51:32;;;;;;;6.72;4.00;;;;;;;21.31;26.14;98278.59;1747564;80;21015;-58
2022/04/14 10:54:11;;;;;;;9.15;3.90;;;;;;;20.82;25.85;98276.53;1720142;80;21497;-58
2022/04/14 10:56:45;;;;;;;10.68;4.62;;;;;;;20.92;26.35;98277.24;1739905;81;21978;-58
2022/04/14 10:59:14;;;;;;;7.37;4.30;;;;;;;20.80;26.88;98271.14;1745148;81;21067;-58
2022/04/14 11:01:51;;;;;;;9.80;4.47;;;;;;;20.96;27.25;98275.43;1749278;81;21212;-58
2022/04/14 11:04:29;;;;;;;8.90;4.45;;;;;;;20.95;27.46;98263.61;1735429;80;21154;-58
2022/04/14 11:07:08;;;;;;;8.10;4.00;;;;;;;21.03;27.68;98270.16;1743309;81;21032;-58
2022/04/14 11:09:48;;;;;;;;;;;;;;;20.95;27.33;98269.12;1735953;81;21175;-58
2022/04/14 11:12:35;;;;;;;7.20;4.30;;;;;;;21.00;27.89;98268.08;1744696;81;20174;-58
2022/04/14 11:15:02;;;;;;;11.45;5.20;;;;;;;20.90;27.11;98266.58;1751237;80;21076;-58
2022/04/14 11:17:48;;;;;;;7.50;4.55;;;;;;;20.97;27.19;98260.51;1757358;81;21076;-58
2022/04/14 11:20:37;;;;;;;8.83;4.22;;;;;;;20.98;27.78;98257.98;1740504;81;21456;-58
2022/04/14 11:23:15;;;;;;;11.70;5.20;;;;;;;21.07;27.11;98254.55;1734371;81;21157;-58
2022/04/14 11:25:48;;;;;;;9.65;4.83;;;;;;;21.12;27.42;98252.38;1734516;81;21043;-58
2022/04/14 11:28:31;;;;;;;10.95;4.90;;;;;;;21.26;28.05;98247.09;1730646;81;21080;-57
2022/04/14 11:31:15;;;;;;;8.25;4.55;;;;;;;21.35;28.16;98242.30;1737579;81;21046;-58